PWSweather.com
Personal Weather Stations
Station Observations
KPASPRIN10
East Vincent, East Vincent, PA 19475

East VincentEast Vincent, PA 19475

Lat: 40.170948, Lon: -75.629681

Elevation: 404

Station Type: Davis VP2

http://www.evweather.com

Latest ConditionsUpdated 5:30:02 PM EST Sunday, Jan 20, 2019
Currently Today's Max Today's Min Today's Average
Temperature 22.5°F-5.3°C 39.0°F3.9°C 22.5°F-5.3°C 34.0°F1.1°C
Dew Point 14.2°F-9.9°C 38.5°F3.6°C 14.2°F-9.9°C 31.3°F-0.4°C
Winds 8.1 mph NW13.0 kmh NW 20.7 mph -33.3 kmh - - 6.7 mph 10.8 kmh
Wind Gusts 10.4 mph16.7 kmh 32.2 mph51.8 kmh - -
Humidity 70% 98% 68% 90%
Pressure 29.66 in1004.4 mb 29.73 in1006.8 mb 29.25 in990.5 mb -
Precipitation - 0.84 in21.3 mm - -
Hour Temp Dew Point Humidity Winds Wind Gusts Pressure Precip Precip Rate Daily Precip Total
05:30 PM 22.5°F-5.3°C 14.2°F-9.9°C 70% 8.1 mph NW13.0 kmh NW 10.4 mph16.7 kmh 29.66 in1004.4 mb - 0.00 in0.0 mm 0.84 in21.3 mm
05:20 PM 22.7°F-5.2°C 14.4°F-9.8°C 70% 11.5 mph NW18.5 kmh NW 19.6 mph31.5 kmh 29.65 in1004.1 mb - 0.00 in0.0 mm 0.84 in21.3 mm
05:10 PM 22.7°F-5.2°C 14.7°F-9.6°C 71% 13.8 mph NW22.2 kmh NW 16.1 mph25.9 kmh 29.64 in1003.7 mb - 0.00 in0.0 mm 0.84 in21.3 mm
05:00 PM 23.0°F-5.0°C 14.7°F-9.6°C 70% 12.7 mph NW20.4 kmh NW 15.0 mph24.1 kmh 29.63 in1003.4 mb - 0.00 in0.0 mm 0.84 in21.3 mm
04:50 PM 23.4°F-4.8°C 14.7°F-9.6°C 69% 15.0 mph NNW24.1 kmh NNW 17.3 mph27.8 kmh 29.62 in1003.0 mb - 0.00 in0.0 mm 0.84 in21.3 mm
04:40 PM 23.8°F-4.6°C 15.1°F-9.4°C 69% 12.7 mph NW20.4 kmh NW 19.6 mph31.5 kmh 29.61 in1002.7 mb - 0.00 in0.0 mm 0.84 in21.3 mm
04:30 PM 24.2°F-4.3°C 15.5°F-9.2°C 69% 10.4 mph NNW16.7 kmh NNW 11.5 mph18.5 kmh 29.61 in1002.7 mb - 0.00 in0.0 mm 0.84 in21.3 mm
04:20 PM 24.3°F-4.3°C 15.6°F-9.1°C 69% 13.8 mph NW22.2 kmh NW 18.4 mph29.6 kmh 29.60 in1002.4 mb - 0.00 in0.0 mm 0.84 in21.3 mm
04:10 PM 24.8°F-4.0°C 16.4°F-8.7°C 70% 13.8 mph NW22.2 kmh NW 23.0 mph37.0 kmh 29.59 in1002.0 mb - 0.00 in0.0 mm 0.84 in21.3 mm
04:00 PM 25.1°F-3.8°C 16.4°F-8.7°C 69% 10.4 mph NW16.7 kmh NW 15.0 mph24.1 kmh 29.59 in1002.0 mb - 0.00 in0.0 mm 0.84 in21.3 mm
03:50 PM 25.4°F-3.7°C 16.3°F-8.7°C 68% 13.8 mph NW22.2 kmh NW 26.5 mph42.6 kmh 29.58 in1001.7 mb - 0.00 in0.0 mm 0.84 in21.3 mm
03:40 PM 25.5°F-3.6°C 17.1°F-8.3°C 70% 8.1 mph NW13.0 kmh NW 10.4 mph16.7 kmh 29.57 in1001.4 mb - 0.00 in0.0 mm 0.84 in21.3 mm
03:30 PM 25.8°F-3.4°C 17.0°F-8.3°C 69% 9.2 mph NW14.8 kmh NW 15.0 mph24.1 kmh 29.57 in1001.4 mb - 0.00 in0.0 mm 0.84 in21.3 mm
03:20 PM 25.4°F-3.7°C 16.6°F-8.6°C 69% 15.0 mph NW24.1 kmh NW 19.6 mph31.5 kmh 29.56 in1001.0 mb - 0.00 in0.0 mm 0.84 in21.3 mm
03:10 PM 25.9°F-3.4°C 17.5°F-8.1°C 70% 10.4 mph NNW16.7 kmh NNW 19.6 mph31.5 kmh 29.55 in1000.7 mb - 0.00 in0.0 mm 0.84 in21.3 mm
03:00 PM 26.1°F-3.3°C 17.3°F-8.2°C 69% 13.8 mph NW22.2 kmh NW 19.6 mph31.5 kmh 29.54 in1000.3 mb - 0.00 in0.0 mm 0.84 in21.3 mm
02:50 PM 26.4°F-3.1°C 17.6°F-8.0°C 69% 19.6 mph NW31.5 kmh NW 19.6 mph31.5 kmh 29.53 in1000.0 mb - 0.00 in0.0 mm 0.84 in21.3 mm
02:40 PM 27.2°F-2.7°C 19.7°F-6.8°C 73% 11.5 mph NW18.5 kmh NW 19.6 mph31.5 kmh 29.51 in999.3 mb - 0.00 in0.0 mm 0.84 in21.3 mm
02:30 PM 27.1°F-2.7°C 18.9°F-7.3°C 71% 17.3 mph NW27.8 kmh NW 21.9 mph35.2 kmh 29.50 in999.0 mb - 0.00 in0.0 mm 0.84 in21.3 mm
02:20 PM 26.8°F-2.9°C 19.6°F-6.9°C 74% 13.8 mph NW22.2 kmh NW 24.2 mph38.9 kmh 29.49 in998.6 mb - 0.00 in0.0 mm 0.84 in21.3 mm
02:10 PM 26.7°F-2.9°C 19.8°F-6.8°C 75% 12.7 mph NW20.4 kmh NW 21.9 mph35.2 kmh 29.49 in998.6 mb - 0.00 in0.0 mm 0.84 in21.3 mm
02:00 PM 27.1°F-2.7°C 20.5°F-6.4°C 76% 12.7 mph NW20.4 kmh NW 19.6 mph31.5 kmh 29.48 in998.3 mb - 0.00 in0.0 mm 0.84 in21.3 mm
01:50 PM 27.8°F-2.3°C 21.2°F-6.0°C 76% 13.8 mph NW22.2 kmh NW 25.3 mph40.7 kmh 29.47 in998.0 mb - 0.00 in0.0 mm 0.84 in21.3 mm
01:40 PM 28.7°F-1.8°C 22.4°F-5.3°C 77% 18.4 mph NW29.6 kmh NW 23.0 mph37.0 kmh 29.45 in997.3 mb - 0.00 in0.0 mm 0.84 in21.3 mm
01:30 PM 30.3°F-0.9°C 24.5°F-4.2°C 79% 17.3 mph NW27.8 kmh NW 28.8 mph46.3 kmh 29.44 in997.0 mb - 0.00 in0.0 mm 0.84 in21.3 mm
01:20 PM 30.4°F-0.9°C 25.3°F-3.7°C 81% 15.0 mph NW24.1 kmh NW 23.0 mph37.0 kmh 29.43 in996.6 mb - 0.00 in0.0 mm 0.84 in21.3 mm
01:10 PM 31.0°F-0.6°C 26.2°F-3.2°C 82% 20.7 mph NW33.3 kmh NW 32.2 mph51.8 kmh 29.42 in996.3 mb - 0.00 in0.0 mm 0.84 in21.3 mm
01:00 PM 31.8°F-0.1°C 27.3°F-2.6°C 83% 13.8 mph NW22.2 kmh NW 19.6 mph31.5 kmh 29.42 in996.3 mb - 0.00 in0.0 mm 0.84 in21.3 mm
12:50 PM 32.3°F0.2°C 27.7°F-2.4°C 83% 9.2 mph NW14.8 kmh NW 18.4 mph29.6 kmh 29.42 in996.3 mb - 0.00 in0.0 mm 0.84 in21.3 mm
12:40 PM 33.0°F0.6°C 28.7°F-1.8°C 84% 12.7 mph NW20.4 kmh NW 16.1 mph25.9 kmh 29.42 in996.3 mb - 0.00 in0.0 mm 0.84 in21.3 mm
12:30 PM 33.9°F1.1°C 29.8°F-1.2°C 85% 11.5 mph WNW18.5 kmh WNW 19.6 mph31.5 kmh 29.41 in995.9 mb - 0.00 in0.0 mm 0.84 in21.3 mm
12:20 PM 35.4°F1.9°C 32.2°F0.1°C 88% 17.3 mph WNW27.8 kmh WNW 23.0 mph37.0 kmh 29.40 in995.6 mb - 0.01 in0.3 mm 0.84 in21.3 mm
12:10 PM 36.3°F2.4°C 33.7°F0.9°C 90% 9.2 mph NW14.8 kmh NW 15.0 mph24.1 kmh 29.38 in994.9 mb - 0.01 in0.3 mm 0.84 in21.3 mm
12:00 PM 36.9°F2.7°C 35.1°F1.7°C 93% 10.4 mph NW16.7 kmh NW 12.7 mph20.4 kmh 29.37 in994.6 mb - 0.01 in0.3 mm 0.84 in21.3 mm
11:50 AM 37.2°F2.9°C 36.2°F2.3°C 96% 15.0 mph NW24.1 kmh NW 19.6 mph31.5 kmh 29.36 in994.2 mb - 0.01 in0.3 mm 0.84 in21.3 mm
11:40 AM 37.4°F3.0°C 36.6°F2.6°C 97% 10.4 mph NW16.7 kmh NW 12.7 mph20.4 kmh 29.37 in994.6 mb - 0.01 in0.3 mm 0.84 in21.3 mm
11:30 AM 37.9°F3.3°C 37.1°F2.8°C 97% 9.2 mph WNW14.8 kmh WNW 19.6 mph31.5 kmh 29.36 in994.2 mb - 0.01 in0.3 mm 0.84 in21.3 mm
11:20 AM 38.3°F3.5°C 37.8°F3.2°C 98% 10.4 mph NW16.7 kmh NW 15.0 mph24.1 kmh 29.36 in994.2 mb - 0.00 in0.0 mm 0.83 in21.1 mm
11:10 AM 38.8°F3.8°C 38.3°F3.5°C 98% 10.4 mph WNW16.7 kmh WNW 18.4 mph29.6 kmh 29.34 in993.6 mb - 0.00 in0.0 mm 0.83 in21.1 mm
11:00 AM 38.7°F3.7°C 38.2°F3.4°C 98% 5.8 mph NW9.3 kmh NW 8.1 mph13.0 kmh 29.34 in993.6 mb - 0.00 in0.0 mm 0.83 in21.1 mm
10:50 AM 38.4°F3.6°C 37.9°F3.3°C 98% 9.2 mph NW14.8 kmh NW 15.0 mph24.1 kmh 29.34 in993.6 mb - 0.00 in0.0 mm 0.83 in21.1 mm
10:40 AM 38.6°F3.7°C 38.1°F3.4°C 98% 11.5 mph NW18.5 kmh NW 15.0 mph24.1 kmh 29.33 in993.2 mb - 0.00 in0.0 mm 0.83 in21.1 mm
10:30 AM 38.2°F3.4°C 37.7°F3.2°C 98% 8.1 mph WNW13.0 kmh WNW 17.3 mph27.8 kmh 29.32 in992.9 mb - 0.01 in0.3 mm 0.83 in21.1 mm
10:20 AM 38.6°F3.7°C 38.1°F3.4°C 98% 11.5 mph WNW18.5 kmh WNW 13.8 mph22.2 kmh 29.31 in992.6 mb - 0.01 in0.3 mm 0.83 in21.1 mm
10:10 AM 38.7°F3.7°C 38.2°F3.4°C 98% 8.1 mph NW13.0 kmh NW 10.4 mph16.7 kmh 29.31 in992.6 mb - 0.02 in0.5 mm 0.83 in21.1 mm
10:00 AM 39.0°F3.9°C 38.5°F3.6°C 98% Calm Calm 1.2 mph1.9 kmh 29.29 in991.9 mb - 0.03 in0.8 mm 0.83 in21.1 mm
09:50 AM 38.6°F3.7°C 38.1°F3.4°C 98% 1.2 mph NW1.9 kmh NW 2.3 mph3.7 kmh 29.28 in991.5 mb - 0.06 in1.5 mm 0.83 in21.1 mm
09:40 AM 38.7°F3.7°C 38.2°F3.4°C 98% Calm Calm -- 29.28 in991.5 mb - 0.08 in2.0 mm 0.83 in21.1 mm
09:30 AM 38.0°F3.3°C 37.5°F3.1°C 98% 1.2 mph WNW1.9 kmh WNW 3.5 mph5.6 kmh 29.28 in991.5 mb - 0.08 in2.0 mm 0.82 in20.8 mm
09:20 AM 37.7°F3.2°C 37.2°F2.9°C 98% 2.3 mph WNW3.7 kmh WNW 3.5 mph5.6 kmh 29.27 in991.2 mb - 0.08 in2.0 mm 0.82 in20.8 mm
09:10 AM 38.2°F3.4°C 37.7°F3.2°C 98% 8.1 mph NW13.0 kmh NW 11.5 mph18.5 kmh 29.27 in991.2 mb - 0.08 in2.0 mm 0.81 in20.6 mm
09:00 AM 39.0°F3.9°C 38.5°F3.6°C 98% 4.6 mph WNW7.4 kmh WNW 4.6 mph7.4 kmh 29.28 in991.5 mb - 0.07 in1.8 mm 0.80 in20.3 mm
08:50 AM 38.9°F3.8°C 38.3°F3.5°C 98% 2.3 mph NNW3.7 kmh NNW 3.5 mph5.6 kmh 29.26 in990.9 mb - 0.05 in1.3 mm 0.78 in19.8 mm
08:40 AM 36.8°F2.7°C 36.3°F2.4°C 98% 9.2 mph NW14.8 kmh NW 12.7 mph20.4 kmh 29.29 in991.9 mb - 0.02 in0.5 mm 0.75 in19.1 mm
08:30 AM 37.1°F2.8°C 36.6°F2.6°C 98% Calm Calm -- 29.25 in990.5 mb - 0.01 in0.3 mm 0.74 in18.8 mm
08:20 AM 36.8°F2.7°C 36.3°F2.4°C 98% Calm Calm -- 29.26 in990.9 mb - 0.01 in0.3 mm 0.74 in18.8 mm
08:10 AM 36.6°F2.6°C 36.1°F2.3°C 98% Calm Calm 1.2 mph1.9 kmh 29.27 in991.2 mb - 0.00 in0.0 mm 0.73 in18.5 mm
08:00 AM 36.5°F2.5°C 36.0°F2.2°C 98% Calm Calm -- 29.27 in991.2 mb - 0.00 in0.0 mm 0.73 in18.5 mm
07:50 AM 36.4°F2.4°C 35.9°F2.2°C 98% Calm Calm 2.3 mph3.7 kmh 29.28 in991.5 mb - 0.00 in0.0 mm 0.73 in18.5 mm
07:40 AM 36.4°F2.4°C 35.9°F2.2°C 98% Calm Calm 1.2 mph1.9 kmh 29.29 in991.9 mb - 0.00 in0.0 mm 0.73 in18.5 mm
07:30 AM 36.3°F2.4°C 35.8°F2.1°C 98% Calm Calm -- 29.30 in992.2 mb - 0.00 in0.0 mm 0.73 in18.5 mm
07:20 AM 36.2°F2.3°C 35.7°F2.1°C 98% Calm Calm 1.2 mph1.9 kmh 29.30 in992.2 mb - 0.00 in0.0 mm 0.73 in18.5 mm
07:10 AM 36.3°F2.4°C 35.8°F2.1°C 98% Calm Calm -- 29.31 in992.6 mb - 0.00 in0.0 mm 0.73 in18.5 mm
07:00 AM 36.1°F2.3°C 35.6°F2.0°C 98% 5.8 mph ESE9.3 kmh ESE 6.9 mph11.1 kmh 29.30 in992.2 mb - 0.01 in0.3 mm 0.73 in18.5 mm
06:50 AM 36.1°F2.3°C 35.6°F2.0°C 98% Calm Calm -- 29.32 in992.9 mb - 0.01 in0.3 mm 0.73 in18.5 mm
06:40 AM 36.1°F2.3°C 35.6°F2.0°C 98% Calm Calm 1.2 mph1.9 kmh 29.32 in992.9 mb - 0.01 in0.3 mm 0.73 in18.5 mm
06:30 AM 36.1°F2.3°C 35.6°F2.0°C 98% 1.2 mph NE1.9 kmh NE 3.5 mph5.6 kmh 29.34 in993.6 mb - 0.01 in0.3 mm 0.73 in18.5 mm
06:20 AM 36.1°F2.3°C 35.6°F2.0°C 98% 2.3 mph NE3.7 kmh NE 4.6 mph7.4 kmh 29.35 in993.9 mb - 0.01 in0.3 mm 0.73 in18.5 mm
06:10 AM 36.1°F2.3°C 35.6°F2.0°C 98% 3.5 mph N5.6 kmh N 4.6 mph7.4 kmh 29.36 in994.2 mb - 0.02 in0.5 mm 0.73 in18.5 mm
06:00 AM 36.1°F2.3°C 35.6°F2.0°C 98% 2.3 mph N3.7 kmh N 3.5 mph5.6 kmh 29.37 in994.6 mb - 0.01 in0.3 mm 0.72 in18.3 mm
05:50 AM 36.3°F2.4°C 35.8°F2.1°C 98% Calm Calm 3.5 mph5.6 kmh 29.38 in994.9 mb - 0.02 in0.5 mm 0.72 in18.3 mm
05:40 AM 36.6°F2.6°C 36.1°F2.3°C 98% 1.2 mph NE1.9 kmh NE 3.5 mph5.6 kmh 29.38 in994.9 mb - 0.02 in0.5 mm 0.72 in18.3 mm
05:30 AM 36.6°F2.6°C 36.1°F2.3°C 98% 4.6 mph NE7.4 kmh NE 5.8 mph9.3 kmh 29.38 in994.9 mb - 0.03 in0.8 mm 0.72 in18.3 mm
05:20 AM 36.6°F2.6°C 36.1°F2.3°C 98% 4.6 mph E7.4 kmh E 6.9 mph11.1 kmh 29.39 in995.3 mb - 0.04 in1.0 mm 0.72 in18.3 mm
05:10 AM 36.5°F2.5°C 36.0°F2.2°C 98% 5.8 mph E9.3 kmh E 6.9 mph11.1 kmh 29.40 in995.6 mb - 0.04 in1.0 mm 0.71 in18.0 mm
05:00 AM 36.6°F2.6°C 36.1°F2.3°C 98% 4.6 mph E7.4 kmh E 8.1 mph13.0 kmh 29.42 in996.3 mb - 0.05 in1.3 mm 0.71 in18.0 mm
04:50 AM 36.7°F2.6°C 36.1°F2.3°C 98% 1.2 mph E1.9 kmh E 3.5 mph5.6 kmh 29.45 in997.3 mb - 0.05 in1.3 mm 0.70 in17.8 mm
04:40 AM 36.5°F2.5°C 36.0°F2.2°C 98% 3.5 mph NE5.6 kmh NE 4.6 mph7.4 kmh 29.45 in997.3 mb - 0.07 in1.8 mm 0.70 in17.8 mm
04:30 AM 36.9°F2.7°C 36.1°F2.3°C 97% 4.6 mph ENE7.4 kmh ENE 8.1 mph13.0 kmh 29.46 in997.6 mb - 0.09 in2.3 mm 0.69 in17.5 mm
04:20 AM 37.0°F2.8°C 36.2°F2.3°C 97% Calm Calm -- 29.46 in997.6 mb - 0.10 in2.5 mm 0.68 in17.3 mm
04:10 AM 37.0°F2.8°C 36.5°F2.5°C 98% 2.3 mph E3.7 kmh E 3.5 mph5.6 kmh 29.46 in997.6 mb - 0.10 in2.5 mm 0.67 in17.0 mm
04:00 AM 37.1°F2.8°C 36.6°F2.6°C 98% 2.3 mph ENE3.7 kmh ENE 4.6 mph7.4 kmh 29.47 in998.0 mb - 0.10 in2.5 mm 0.66 in16.8 mm
03:50 AM 37.3°F2.9°C 36.8°F2.7°C 98% 3.5 mph E5.6 kmh E 4.6 mph7.4 kmh 29.49 in998.6 mb - 0.11 in2.8 mm 0.65 in16.5 mm
03:40 AM 37.3°F2.9°C 36.8°F2.7°C 98% 2.3 mph E3.7 kmh E 3.5 mph5.6 kmh 29.50 in999.0 mb - 0.11 in2.8 mm 0.63 in16.0 mm
03:30 AM 37.3°F2.9°C 36.5°F2.5°C 97% 1.2 mph ESE1.9 kmh ESE 3.5 mph5.6 kmh 29.51 in999.3 mb - 0.09 in2.3 mm 0.60 in15.2 mm
03:20 AM 37.1°F2.8°C 36.6°F2.6°C 98% 6.9 mph E11.1 kmh E 8.1 mph13.0 kmh 29.52 in999.7 mb - 0.09 in2.3 mm 0.59 in15.0 mm
03:10 AM 36.8°F2.7°C 36.0°F2.2°C 97% 1.2 mph ESE1.9 kmh ESE 6.9 mph11.1 kmh 29.54 in1000.3 mb - 0.08 in2.0 mm 0.57 in14.5 mm
03:00 AM 36.6°F2.6°C 35.8°F2.1°C 97% 2.3 mph SE3.7 kmh SE 6.9 mph11.1 kmh 29.56 in1001.0 mb - 0.10 in2.5 mm 0.56 in14.2 mm
02:50 AM 36.9°F2.7°C 36.4°F2.4°C 98% 1.2 mph ESE1.9 kmh ESE 2.3 mph3.7 kmh 29.58 in1001.7 mb - 0.11 in2.8 mm 0.54 in13.7 mm
02:40 AM 36.6°F2.6°C 35.8°F2.1°C 97% 2.3 mph E3.7 kmh E 4.6 mph7.4 kmh 29.58 in1001.7 mb - 0.13 in3.3 mm 0.52 in13.2 mm
02:30 AM 36.6°F2.6°C 35.8°F2.1°C 97% 3.5 mph ENE5.6 kmh ENE 4.6 mph7.4 kmh 29.61 in1002.7 mb - 0.15 in3.8 mm 0.51 in13.0 mm
02:20 AM 36.5°F2.5°C 35.7°F2.1°C 97% 1.2 mph ESE1.9 kmh ESE 2.3 mph3.7 kmh 29.62 in1003.0 mb - 0.18 in4.6 mm 0.50 in12.7 mm
02:10 AM 36.5°F2.5°C 35.7°F2.1°C 97% Calm Calm -- 29.64 in1003.7 mb - 0.21 in5.3 mm 0.49 in12.4 mm
02:00 AM 36.7°F2.6°C 35.9°F2.2°C 97% Calm Calm -- 29.65 in1004.1 mb - 0.23 in5.8 mm 0.47 in11.9 mm
01:50 AM 36.5°F2.5°C 35.7°F2.1°C 97% 2.3 mph ESE3.7 kmh ESE 4.6 mph7.4 kmh 29.64 in1003.7 mb - 0.25 in6.4 mm 0.44 in11.2 mm
01:40 AM 36.3°F2.4°C 35.5°F1.9°C 97% 2.3 mph E3.7 kmh E 6.9 mph11.1 kmh 29.64 in1003.7 mb - 0.24 in6.1 mm 0.40 in10.2 mm
01:30 AM 36.2°F2.3°C 35.4°F1.9°C 97% 3.5 mph ESE5.6 kmh ESE 3.5 mph5.6 kmh 29.66 in1004.4 mb - 0.23 in5.8 mm 0.36 in9.1 mm
01:20 AM 36.3°F2.4°C 35.5°F1.9°C 97% 3.5 mph E5.6 kmh E 6.9 mph11.1 kmh 29.66 in1004.4 mb - 0.24 in6.1 mm 0.32 in8.1 mm
01:10 AM 36.2°F2.3°C 35.4°F1.9°C 97% 6.9 mph E11.1 kmh E 10.4 mph16.7 kmh 29.66 in1004.4 mb - 0.25 in6.4 mm 0.29 in7.4 mm
01:00 AM 36.2°F2.3°C 35.4°F1.9°C 97% 3.5 mph ENE5.6 kmh ENE 3.5 mph5.6 kmh 29.70 in1005.8 mb - 0.24 in6.1 mm 0.24 in6.1 mm
12:50 AM 36.0°F2.2°C 35.2°F1.8°C 97% 4.6 mph E7.4 kmh E 8.1 mph13.0 kmh 29.70 in1005.8 mb - 0.22 in5.6 mm 0.19 in4.8 mm
12:40 AM 35.4°F1.9°C 34.6°F1.4°C 97% 6.9 mph E11.1 kmh E 10.4 mph16.7 kmh 29.68 in1005.1 mb - 0.23 in5.8 mm 0.16 in4.1 mm
12:30 AM 35.3°F1.8°C 34.5°F1.4°C 97% 3.5 mph E5.6 kmh E 3.5 mph5.6 kmh 29.70 in1005.8 mb - 0.24 in6.1 mm 0.13 in3.3 mm
12:20 AM 35.5°F1.9°C 34.7°F1.5°C 97% 1.2 mph ENE1.9 kmh ENE 3.5 mph5.6 kmh 29.72 in1006.4 mb - 0.24 in6.1 mm 0.08 in2.0 mm
12:10 AM 35.4°F1.9°C 34.6°F1.4°C 97% 1.2 mph E1.9 kmh E 3.5 mph5.6 kmh 29.73 in1006.8 mb - 0.24 in6.1 mm 0.04 in1.0 mm
12:00 AM 35.3°F1.8°C 34.5°F1.4°C 97% 2.3 mph E3.7 kmh E 3.5 mph5.6 kmh 29.73 in1006.8 mb - 0.24 in6.1 mm 0.24 in6.1 mm